Time;durP1;ratioP1;P1;durP2;ratioP2;P2;SDS_P1;SDS_P2;PMS_P1;PMS_P2;Temp;Humidity;BMP_temperature;BMP_pressure;BME280_temperature;BME280_humidity;BME280_pressure;Samples;Min_cycle;Max_cycle;Signal;HPM_P1;HPM_P2
2022/02/17 00:00:09;;;;;;;43.25;6.47;;;10.70;96.70;;;;;;5020227;28;20029;-64
2022/02/17 00:02:34;;;;;;;42.70;7.05;;;10.70;96.70;;;;;;5016119;28;20040;-63
2022/02/17 00:05:00;;;;;;;38.55;6.97;;;10.70;96.80;;;;;;5019541;28;20029;-62
2022/02/17 00:07:25;;;;;;;41.80;6.35;;;10.70;96.80;;;;;;5022040;28;20025;-64
2022/02/17 00:09:51;;;;;;;43.78;8.05;;;10.70;96.80;;;;;;5020789;28;20037;-61
2022/02/17 00:12:16;;;;;;;38.30;6.68;;;10.70;96.90;;;;;;5022036;28;20041;-62
2022/02/17 00:14:42;;;;;;;35.05;6.88;;;10.70;96.70;;;;;;5024061;28;20048;-63
2022/02/17 00:17:07;;;;;;;23.10;5.25;;;10.70;96.80;;;;;;5021918;28;20045;-62
2022/02/17 00:19:33;;;;;;;26.38;6.38;;;10.70;96.90;;;;;;5025893;28;20121;-62
2022/02/17 00:21:58;;;;;;;20.40;5.82;;;10.70;96.90;;;;;;5024368;28;20116;-61
2022/02/17 00:24:24;;;;;;;23.27;5.50;;;10.70;97.10;;;;;;5021136;28;20039;-60
2022/02/17 00:26:49;;;;;;;27.70;6.25;;;10.70;97.10;;;;;;5021986;28;20056;-65
2022/02/17 00:29:15;;;;;;;32.70;6.35;;;10.70;97.10;;;;;;5022547;28;20125;-62
2022/02/17 00:31:40;;;;;;;27.00;4.40;;;10.70;97.10;;;;;;5023266;28;20344;-61
2022/02/17 00:34:08;;;;;;;20.17;4.90;;;10.70;97.30;;;;;;5018394;28;20353;-62
2022/02/17 00:36:33;;;;;;;26.80;4.40;;;10.70;97.50;;;;;;5006082;28;20029;-61
2022/02/17 00:38:59;;;;;;;19.38;4.65;;;10.60;97.50;;;;;;5005747;28;20534;-63
2022/02/17 00:41:25;;;;;;;26.50;4.53;;;10.70;97.50;;;;;;5020353;28;20040;-62
2022/02/17 00:43:50;;;;;;;16.88;4.35;;;10.70;97.40;;;;;;5021607;28;20017;-62
2022/02/17 00:46:16;;;;;;;19.90;4.28;;;10.70;97.30;;;;;;5024886;28;20044;-61
2022/02/17 00:48:41;;;;;;;24.48;4.47;;;10.70;97.40;;;;;;5024990;28;20025;-62
2022/02/17 00:51:07;;;;;;;16.05;4.32;;;10.70;97.40;;;;;;5020595;28;20044;-61
2022/02/17 00:53:32;;;;;;;13.23;4.15;;;10.70;97.50;;;;;;5022071;28;20025;-61
2022/02/17 00:55:58;;;;;;;20.67;4.03;;;10.60;97.50;;;;;;5022014;28;20540;-64
2022/02/17 00:58:23;;;;;;;12.77;3.42;;;10.70;97.60;;;;;;5023755;28;20761;-61
2022/02/17 01:00:49;;;;;;;18.58;3.50;;;10.70;97.40;;;;;;5022357;28;20052;-62
2022/02/17 01:03:14;;;;;;;14.18;3.35;;;10.70;97.40;;;;;;5021131;28;20068;-61
2022/02/17 01:05:40;;;;;;;18.35;3.45;;;10.70;97.40;;;;;;5021237;28;20365;-65
2022/02/17 01:08:06;;;;;;;15.48;3.70;;;10.70;97.50;;;;;;5019768;28;20120;-60
2022/02/17 01:10:31;;;;;;;10.00;3.40;;;10.70;97.60;;;;;;5022883;28;20029;-62
2022/02/17 01:12:57;;;;;;;14.27;3.95;;;10.70;97.50;;;;;;5021798;28;20110;-62
2022/02/17 01:15:22;;;;;;;10.57;4.15;;;10.70;97.60;;;;;;5023361;28;20038;-61
2022/02/17 01:17:48;;;;;;;10.35;3.28;;;10.70;97.60;;;;;;5022848;28;20090;-66
2022/02/17 01:20:14;;;;;;;14.98;3.10;;;10.70;97.70;;;;;;5021518;28;20049;-60
2022/02/17 01:22:45;;;;;;;14.02;3.40;;;10.70;97.60;;;;;;5021141;28;20045;-63
2022/02/17 01:25:11;;;;;;;7.70;3.45;;;10.70;97.60;;;;;;5023628;28;20033;-62
2022/02/17 01:27:36;;;;;;;8.75;2.83;;;10.70;97.60;;;;;;5022544;28;20275;-62
2022/02/17 01:30:02;;;;;;;14.50;2.95;;;10.70;97.60;;;;;;5023313;28;20045;-61
2022/02/17 01:32:27;;;;;;;6.82;2.75;;;10.70;97.60;;;;;;5020758;28;20033;-63
2022/02/17 01:34:53;;;;;;;8.80;2.60;;;10.70;97.60;;;;;;5020014;28;20042;-63
2022/02/17 01:37:18;;;;;;;10.00;2.75;;;10.70;97.70;;;;;;5021522;28;20817;-61
2022/02/17 01:39:44;;;;;;;8.25;2.78;;;10.70;97.60;;;;;;5023576;28;20034;-62
2022/02/17 01:42:10;;;;;;;11.48;2.70;;;10.70;97.60;;;;;;5021323;28;20288;-60
2022/02/17 01:44:35;;;;;;;9.43;2.53;;;10.80;97.60;;;;;;5004292;28;20033;-62
2022/02/17 01:47:05;;;;;;;8.93;2.40;;;10.70;97.50;;;;;;5020211;28;20037;-62
2022/02/17 01:49:30;;;;;;;8.30;2.20;;;10.70;97.70;;;;;;5021433;28;20053;-63
2022/02/17 01:51:56;;;;;;;6.70;2.22;;;10.70;97.70;;;;;;5021204;28;20068;-62
2022/02/17 01:54:22;;;;;;;9.50;2.67;;;10.80;97.60;;;;;;5023939;28;20120;-60
2022/02/17 01:56:48;;;;;;;7.68;2.15;;;10.80;97.60;;;;;;5019175;28;20083;-64
2022/02/17 01:59:13;;;;;;;7.97;2.42;;;10.80;97.60;;;;;;5019438;28;20390;-63
2022/02/17 02:01:39;;;;;;;9.55;2.10;;;10.80;97.50;;;;;;5019436;28;20124;-62
2022/02/17 02:04:04;;;;;;;9.95;2.10;;;10.80;97.50;;;;;;5021311;28;20148;-63
2022/02/17 02:06:30;;;;;;;4.95;1.85;;;10.80;97.40;;;;;;5021943;28;20025;-63
2022/02/17 02:08:56;;;;;;;7.43;2.30;;;10.80;97.40;;;;;;5022411;28;20039;-64
2022/02/17 02:11:21;;;;;;;5.78;2.00;;;10.80;97.40;;;;;;5020042;28;20061;-65
2022/02/17 02:13:47;;;;;;;7.82;2.13;;;10.80;97.50;;;;;;5022678;28;20125;-62
2022/02/17 02:16:12;;;;;;;5.90;1.85;;;10.80;97.50;;;;;;5021356;28;20118;-63
2022/02/17 02:18:38;;;;;;;7.15;2.03;;;10.90;97.50;;;;;;5023656;28;20056;-63
2022/02/17 02:21:03;;;;;;;3.80;1.50;;;10.90;97.60;;;;;;5022101;28;20064;-62
2022/02/17 02:23:32;;;;;;;3.70;1.92;;;10.80;97.50;;;;;;5021914;28;20017;-62
2022/02/17 02:25:58;;;;;;;5.93;1.65;;;10.80;97.60;;;;;;5019840;28;20080;-63
2022/02/17 02:28:28;;;;;;;9.48;2.08;;;10.80;97.50;;;;;;5022055;28;20433;-65
2022/02/17 02:30:53;;;;;;;6.57;1.50;;;10.90;97.50;;;;;;5020732;28;20033;-61
2022/02/17 02:33:19;;;;;;;4.20;1.55;;;10.90;97.40;;;;;;5003801;28;20103;-62
2022/02/17 02:35:45;;;;;;;3.67;1.48;;;10.80;97.50;;;;;;5019189;28;20036;-62
2022/02/17 02:38:11;;;;;;;7.97;1.77;;;10.90;97.40;;;;;;5021142;28;20079;-62
2022/02/17 02:40:36;;;;;;;4.45;1.45;;;10.90;97.40;;;;;;5021747;28;20124;-62
2022/02/17 02:43:02;;;;;;;4.18;1.60;;;10.80;97.40;;;;;;5022453;28;20064;-63
2022/02/17 02:45:28;;;;;;;5.85;1.60;;;10.90;97.60;;;;;;5022230;28;20049;-61
2022/02/17 02:47:54;;;;;;;3.00;1.50;;;10.80;97.50;;;;;;5021855;28;20644;-63
2022/02/17 02:50:19;;;;;;;1.98;1.10;;;10.90;97.60;;;;;;5002337;28;20057;-64
2022/02/17 02:52:45;;;;;;;4.30;1.52;;;10.90;97.40;;;;;;5022306;28;20902;-61
2022/02/17 02:55:10;;;;;;;7.97;1.75;;;10.90;97.50;;;;;;5021901;28;20307;-64
2022/02/17 02:57:36;;;;;;;3.55;1.23;;;10.90;97.60;;;;;;5023431;28;20338;-61
2022/02/17 03:00:03;;;;;;;1.52;0.80;;;10.90;97.60;;;;;;5021529;28;20103;-63
2022/02/17 03:02:28;;;;;;;3.63;1.20;;;10.90;97.60;;;;;;5019431;28;20077;-64
2022/02/17 03:04:54;;;;;;;4.75;1.00;;;10.90;97.50;;;;;;5020587;28;20121;-64
2022/02/17 03:07:20;;;;;;;2.63;0.95;;;10.90;97.60;;;;;;5020500;28;20430;-60
2022/02/17 03:09:45;;;;;;;2.05;1.10;;;10.90;97.70;;;;;;5022967;28;20501;-62
2022/02/17 03:12:11;;;;;;;1.70;0.80;;;10.90;97.60;;;;;;5020202;28;20040;-61
2022/02/17 03:14:37;;;;;;;1.95;0.82;;;11.00;97.70;;;;;;5020227;28;20109;-63
2022/02/17 03:17:02;;;;;;;2.85;1.00;;;11.00;97.70;;;;;;5018853;28;20025;-65
2022/02/17 03:19:28;;;;;;;2.50;0.60;;;11.00;97.80;;;;;;5019907;28;20092;-62
2022/02/17 03:21:53;;;;;;;2.08;0.70;;;10.90;97.80;;;;;;5022086;28;20033;-60
2022/02/17 03:24:19;;;;;;;2.25;0.55;;;11.00;97.80;;;;;;5020591;28;20030;-63
2022/02/17 03:26:45;;;;;;;3.05;0.90;;;11.00;97.80;;;;;;5020896;28;20091;-64
2022/02/17 03:29:10;;;;;;;1.38;0.73;;;11.00;97.90;;;;;;5020144;28;20034;-62
2022/02/17 03:31:36;;;;;;;2.83;0.73;;;11.00;97.90;;;;;;5018955;28;20053;-62
2022/02/17 03:34:01;;;;;;;1.63;0.70;;;11.00;97.90;;;;;;5021513;28;20115;-63
2022/02/17 03:36:27;;;;;;;1.60;0.70;;;11.00;97.90;;;;;;5023132;28;20048;-61
2022/02/17 03:38:52;;;;;;;2.42;0.90;;;11.00;97.90;;;;;;5022550;28;20026;-66
2022/02/17 03:41:18;;;;;;;3.67;0.70;;;11.00;98.00;;;;;;5019005;28;20033;-65
2022/02/17 03:43:43;;;;;;;2.90;0.98;;;11.00;97.90;;;;;;5021871;28;20018;-64
2022/02/17 03:46:09;;;;;;;2.03;0.98;;;11.00;97.90;;;;;;5019779;28;20042;-61
2022/02/17 03:48:34;;;;;;;2.50;0.80;;;11.00;98.00;;;;;;5026425;28;20338;-64
2022/02/17 03:51:00;;;;;;;1.95;0.77;;;11.00;98.00;;;;;;5023786;28;20053;-63
2022/02/17 03:53:25;;;;;;;5.75;1.00;;;11.00;98.00;;;;;;5024024;28;20198;-62
2022/02/17 03:55:51;;;;;;;3.17;0.80;;;11.00;98.30;;;;;;5023469;28;20386;-63
2022/02/17 04:01:01;;;;;;;3.08;0.88;;;11.00;98.00;;;;;;5024145;28;20032;-65
2022/02/17 04:03:26;;;;;;;1.58;0.70;;;11.00;98.10;;;;;;5023555;28;20037;-65
2022/02/17 04:05:52;;;;;;;3.05;0.63;;;11.00;98.00;;;;;;5021975;28;20034;-63
2022/02/17 04:08:17;;;;;;;1.50;0.73;;;11.00;98.00;;;;;;5023271;28;20033;-64
2022/02/17 04:10:43;;;;;;;1.95;0.60;;;11.00;98.00;;;;;;5023337;28;20571;-62
2022/02/17 04:13:08;;;;;;;2.22;0.50;;;11.00;98.00;;;;;;5022616;28;20052;-65
2022/02/17 04:15:34;;;;;;;2.90;0.73;;;11.00;98.10;;;;;;5024476;28;20072;-66
2022/02/17 04:17:59;;;;;;;2.22;0.80;;;11.10;98.00;;;;;;5022701;28;20065;-62
2022/02/17 04:20:25;;;;;;;3.33;0.73;;;11.00;98.10;;;;;;5024905;28;20025;-66
2022/02/17 04:22:50;;;;;;;1.15;0.60;;;11.10;98.10;;;;;;5006350;28;20053;-64
2022/02/17 04:25:16;;;;;;;1.50;0.70;;;11.10;98.10;;;;;;5024737;28;20572;-64
2022/02/17 04:27:41;;;;;;;1.73;0.65;;;11.00;98.10;;;;;;5026282;28;20047;-61
2022/02/17 04:30:07;;;;;;;3.63;0.80;;;11.10;98.10;;;;;;5025400;28;20056;-63
2022/02/17 04:32:33;;;;;;;1.73;0.60;;;11.10;98.10;;;;;;5021672;28;20042;-62
2022/02/17 04:34:58;;;;;;;0.98;0.70;;;11.10;98.20;;;;;;5022948;28;20040;-61
2022/02/17 04:37:24;;;;;;;1.50;0.90;;;11.10;98.20;;;;;;5020549;28;20413;-64
2022/02/17 04:39:49;;;;;;;1.67;0.77;;;11.10;98.10;;;;;;5025882;28;20041;-64
2022/02/17 04:42:21;;;;;;;1.33;0.80;;;11.10;98.20;;;;;;5024708;28;20512;-62
2022/02/17 04:44:47;;;;;;;1.65;0.90;;;11.10;98.40;;;;;;5023082;28;20033;-63
2022/02/17 04:47:13;;;;;;;1.02;0.50;;;11.10;98.20;;;;;;5022207;28;20393;-64
2022/02/17 04:49:38;;;;;;;1.60;0.82;;;11.10;98.40;;;;;;5021668;28;20437;-63
2022/02/17 04:52:05;;;;;;;0.40;0.40;;;11.10;98.30;;;;;;5021791;28;20056;-63
2022/02/17 04:54:30;;;;;;;0.70;0.60;;;11.10;98.20;;;;;;5025905;28;20124;-60
2022/02/17 04:56:56;;;;;;;0.77;0.38;;;11.10;98.20;;;;;;5024529;28;20611;-62
2022/02/17 04:59:21;;;;;;;0.70;0.55;;;11.10;98.30;;;;;;5023883;28;20151;-61
2022/02/17 05:01:47;;;;;;;0.50;0.40;;;11.10;98.40;;;;;;5022664;28;20083;-65
2022/02/17 05:04:12;;;;;;;1.67;0.30;;;11.10;98.40;;;;;;5006854;28;20114;-62
2022/02/17 05:06:38;;;;;;;0.82;0.57;;;11.10;98.40;;;;;;5024005;28;20022;-64
2022/02/17 05:09:03;;;;;;;1.05;0.45;;;11.10;98.50;;;;;;5024805;28;20041;-60
2022/02/17 05:11:29;;;;;;;1.02;0.38;;;11.10;98.50;;;;;;5023080;28;20025;-63
2022/02/17 05:13:54;;;;;;;4.80;0.68;;;11.10;98.50;;;;;;5022698;28;20040;-65
2022/02/17 05:16:20;;;;;;;0.40;0.40;;;11.10;98.50;;;;;;5021301;28;20033;-63
2022/02/17 05:18:45;;;;;;;11.38;1.38;;;11.10;98.50;;;;;;5023818;28;20045;-65
2022/02/17 05:21:11;;;;;;;16.70;1.40;;;11.10;98.50;;;;;;5007832;28;20110;-62
2022/02/17 05:23:36;;;;;;;16.05;2.28;;;11.10;98.60;;;;;;5024452;28;20068;-63
2022/02/17 05:26:02;;;;;;;13.15;1.80;;;11.10;98.70;;;;;;5023465;28;20033;-61
2022/02/17 05:28:27;;;;;;;18.75;1.52;;;11.10;98.80;;;;;;5021836;28;20049;-62
2022/02/17 05:30:53;;;;;;;11.05;1.48;;;11.10;98.80;;;;;;5022019;28;20304;-63
2022/02/17 05:33:18;;;;;;;36.42;3.67;;;11.10;98.70;;;;;;5023720;28;20124;-63
2022/02/17 05:35:44;;;;;;;22.33;2.88;;;11.10;98.80;;;;;;5020768;28;20119;-61
2022/02/17 05:38:10;;;;;;;26.02;2.75;;;11.20;98.80;;;;;;5022122;28;21207;-61
2022/02/17 05:40:35;;;;;;;95.45;6.10;;;11.20;99.00;;;;;;5021413;28;20547;-62
2022/02/17 05:43:02;;;;;;;209.02;12.00;;;11.20;99.00;;;;;;5022196;28;20030;-61
2022/02/17 05:45:27;;;;;;;88.43;4.50;;;11.20;99.10;;;;;;5024201;28;20029;-60
2022/02/17 05:47:53;;;;;;;107.80;5.93;;;11.20;99.20;;;;;;5023680;28;20469;-61
2022/02/17 05:50:20;;;;;;;126.68;9.45;;;11.20;99.30;;;;;;5021203;28;20338;-65
2022/02/17 05:52:46;;;;;;;93.10;6.03;;;11.20;99.30;;;;;;5004850;28;20033;-64
2022/02/17 05:55:11;;;;;;;49.40;4.75;;;11.20;99.40;;;;;;5022145;28;20033;-64
2022/02/17 05:57:37;;;;;;;46.72;3.83;;;11.20;99.40;;;;;;5024306;28;20389;-63
2022/02/17 06:00:03;;;;;;;50.50;3.75;;;11.10;99.40;;;;;;5023112;28;20116;-63
2022/02/17 06:02:29;;;;;;;40.47;3.50;;;11.20;99.40;;;;;;5020903;28;20064;-62
2022/02/17 06:04:54;;;;;;;21.55;2.22;;;11.20;99.40;;;;;;5023897;28;20080;-61
2022/02/17 06:07:20;;;;;;;31.55;2.90;;;11.30;99.40;;;;;;5021283;28;20044;-63
2022/02/17 06:09:45;;;;;;;21.42;2.42;;;11.30;99.40;;;;;;5021480;28;20164;-64
2022/02/17 06:12:11;;;;;;;25.25;2.05;;;11.30;99.20;;;;;;5023538;28;20029;-64
2022/02/17 06:14:37;;;;;;;30.63;2.05;;;11.30;99.40;;;;;;5023002;28;20385;-65
2022/02/17 06:17:02;;;;;;;26.80;1.88;;;11.20;99.50;;;;;;5020973;28;20029;-60
2022/02/17 06:19:28;;;;;;;23.02;2.15;;;11.20;99.60;;;;;;5021264;28;20476;-64
2022/02/17 06:21:54;;;;;;;19.15;2.20;;;11.20;99.50;;;;;;5022025;28;20049;-63
2022/02/17 06:24:20;;;;;;;29.10;2.60;;;11.30;99.60;;;;;;5004603;28;20037;-65
2022/02/17 06:26:46;;;;;;;29.33;2.40;;;11.30;99.50;;;;;;5022147;28;20383;-60
2022/02/17 06:29:11;;;;;;;22.67;1.85;;;11.30;99.50;;;;;;5019492;28;20215;-64
2022/02/17 06:31:37;;;;;;;14.82;1.52;;;11.30;99.60;;;;;;5010706;28;20025;-60
2022/02/17 06:34:03;;;;;;;15.60;1.50;;;11.30;99.50;;;;;;5013779;28;20774;-64
2022/02/17 06:36:28;;;;;;;14.18;1.33;;;11.40;99.60;;;;;;5018810;28;20487;-60
2022/02/17 06:38:54;;;;;;;24.17;2.63;;;11.40;99.60;;;;;;5019389;28;20045;-62
2022/02/17 06:41:21;;;;;;;17.50;2.05;;;11.40;99.60;;;;;;5013208;28;20091;-63
2022/02/17 06:43:46;;;;;;;34.03;2.05;;;11.40;99.50;;;;;;5014839;28;20417;-60
2022/02/17 06:46:12;;;;;;;24.65;3.03;;;11.40;99.60;;;;;;5015807;28;20032;-61
2022/02/17 06:48:38;;;;;;;26.80;3.03;;;11.40;99.70;;;;;;5002178;28;20021;-62
2022/02/17 06:51:03;;;;;;;30.38;2.67;;;11.40;99.60;;;;;;5013461;28;20017;-61
2022/02/17 06:53:29;;;;;;;18.27;1.88;;;11.40;99.60;;;;;;5021417;28;20064;-64
2022/02/17 06:55:54;;;;;;;18.02;2.28;;;11.40;99.60;;;;;;5012492;28;20131;-61
2022/02/17 06:58:20;;;;;;;22.42;2.15;;;11.40;99.60;;;;;;5017508;28;20136;-64
2022/02/17 07:00:46;;;;;;;19.95;2.10;;;11.40;99.50;;;;;;5018367;28;20034;-62
2022/02/17 07:03:11;;;;;;;19.52;1.95;;;11.40;99.50;;;;;;5002112;28;20087;-62
2022/02/17 07:05:37;;;;;;;15.52;1.25;;;11.40;99.40;;;;;;5016656;28;20033;-61
2022/02/17 07:08:03;;;;;;;12.40;1.20;;;11.40;99.40;;;;;;4999680;28;20029;-65
2022/02/17 07:13:13;;;;;;;11.48;1.20;;;11.40;99.30;;;;;;5013382;28;20044;-63
2022/02/17 07:15:39;;;;;;;4.68;0.80;;;11.50;99.30;;;;;;5019982;28;20037;-64
2022/02/17 07:18:05;;;;;;;11.05;1.10;;;11.50;99.30;;;;;;5019640;28;20053;-64
2022/02/17 07:20:31;;;;;;;9.80;1.00;;;11.50;99.30;;;;;;5021559;28;20033;-61
2022/02/17 07:22:57;;;;;;;5.78;0.80;;;11.50;99.30;;;;;;5019925;28;20075;-64
2022/02/17 07:25:23;;;;;;;10.93;1.13;;;11.50;99.20;;;;;;5021419;28;20042;-61
2022/02/17 07:27:48;;;;;;;7.32;1.00;;;11.50;99.20;;;;;;5015217;28;20119;-62
2022/02/17 07:30:14;;;;;;;13.20;1.45;;;11.50;99.20;;;;;;5012397;28;20040;-60
2022/02/17 07:32:40;;;;;;;7.47;1.02;;;11.50;99.10;;;;;;5006613;28;20052;-60
2022/02/17 07:35:06;;;;;;;11.75;1.40;;;11.50;99.10;;;;;;5011665;28;20130;-63
2022/02/17 07:37:31;;;;;;;15.65;1.90;;;11.50;99.10;;;;;;5011724;28;20041;-61
2022/02/17 07:39:57;;;;;;;15.88;1.92;;;11.50;99.00;;;;;;5014802;28;20049;-64
2022/02/17 07:42:22;;;;;;;18.25;3.38;;;11.50;99.00;;;;;;5020881;28;20045;-62
2022/02/17 07:44:48;;;;;;;18.95;2.35;;;11.50;98.90;;;;;;5018450;28;20029;-65
2022/02/17 07:47:13;;;;;;;14.23;2.25;;;11.50;98.90;;;;;;5016872;28;20038;-61
2022/02/17 07:49:39;;;;;;;35.38;2.83;;;11.50;98.90;;;;;;5017358;28;20026;-62
2022/02/17 07:52:05;;;;;;;19.75;2.50;;;11.50;98.90;;;;;;5023573;28;20025;-60
2022/02/17 07:54:30;;;;;;;16.70;1.88;;;11.60;99.00;;;;;;5022589;28;20033;-64
2022/02/17 07:56:56;;;;;;;13.85;1.70;;;11.60;98.90;;;;;;5016918;28;20667;-62
2022/02/17 07:59:21;;;;;;;15.90;2.90;;;11.60;98.90;;;;;;5021272;28;20177;-65
2022/02/17 08:01:47;;;;;;;27.48;3.15;;;11.60;99.00;;;;;;5020932;28;20036;-62
2022/02/17 08:04:12;;;;;;;27.58;2.95;;;11.60;99.00;;;;;;5015581;28;20158;-63
2022/02/17 08:06:38;;;;;;;14.95;2.63;;;11.60;99.10;;;;;;5005238;28;20026;-62
2022/02/17 08:09:04;;;;;;;15.57;1.33;;;11.70;99.10;;;;;;5019563;28;20180;-63
2022/02/17 08:11:29;;;;;;;15.93;1.63;;;11.60;99.10;;;;;;5022503;28;20540;-64
2022/02/17 08:13:55;;;;;;;14.02;1.50;;;11.60;99.10;;;;;;5022513;28;20034;-61
2022/02/17 08:16:23;;;;;;;8.32;1.30;;;11.70;99.10;;;;;;5019108;28;20115;-61
2022/02/17 08:18:49;;;;;;;8.63;1.63;;;11.70;99.10;;;;;;5016963;28;20071;-62
2022/02/17 08:21:14;;;;;;;10.35;1.35;;;11.70;99.00;;;;;;5017916;28;20504;-63
2022/02/17 08:23:40;;;;;;;4.25;1.15;;;11.70;99.00;;;;;;5018165;28;20095;-65
2022/02/17 08:26:05;;;;;;;2.17;0.63;;;11.70;99.00;;;;;;5001505;28;20123;-61
2022/02/17 08:28:31;;;;;;;5.40;1.00;;;11.70;99.00;;;;;;5017295;28;20084;-65
2022/02/17 08:30:56;;;;;;;8.13;0.95;;;11.70;98.90;;;;;;5018125;28;20144;-64
2022/02/17 08:33:22;;;;;;;5.72;0.98;;;11.80;99.00;;;;;;5021857;28;20108;-63
2022/02/17 08:35:47;;;;;;;11.25;2.03;;;11.80;99.00;;;;;;5021189;28;20104;-62
2022/02/17 08:38:14;;;;;;;11.43;2.00;;;11.80;98.90;;;;;;5023135;28;20029;-62
2022/02/17 08:40:39;;;;;;;16.58;2.38;;;11.80;98.90;;;;;;5023041;28;20032;-64
2022/02/17 08:43:10;;;;;;;33.55;2.80;;;11.80;98.80;;;;;;5020446;28;20037;-63
2022/02/17 08:45:42;;;;;;;21.33;2.33;;;11.90;98.80;;;;;;5021865;28;20041;-62
2022/02/17 08:48:07;;;;;;;12.75;1.40;;;11.90;98.70;;;;;;5017378;28;20388;-63
2022/02/17 08:50:33;;;;;;;16.80;2.40;;;11.90;98.60;;;;;;5015828;28;20533;-63
2022/02/17 08:52:59;;;;;;;20.02;3.20;;;11.90;98.50;;;;;;5014537;28;20107;-64
2022/02/17 08:55:25;;;;;;;30.55;2.70;;;12.00;98.60;;;;;;5019876;28;20030;-64
2022/02/17 08:57:51;;;;;;;11.15;1.92;;;12.00;98.50;;;;;;5020099;28;20445;-63
2022/02/17 09:00:17;;;;;;;26.10;2.70;;;12.00;98.50;;;;;;5021310;28;20132;-64
2022/02/17 09:02:43;;;;;;;37.92;3.45;;;12.00;98.50;;;;;;5022216;28;20121;-61
2022/02/17 09:05:08;;;;;;;26.90;2.75;;;12.00;98.50;;;;;;5021410;28;20037;-63
2022/02/17 09:07:34;;;;;;;23.05;3.55;;;12.00;98.40;;;;;;5016964;28;20044;-62
2022/02/17 09:09:59;;;;;;;21.38;2.65;;;12.00;98.40;;;;;;5018200;28;20120;-61
2022/02/17 09:12:35;;;;;;;27.50;2.78;;;12.00;98.40;;;;;;5012859;28;21489;-64
2022/02/17 09:15:01;;;;;;;14.30;2.28;;;12.10;98.40;;;;;;5017103;28;20079;-64
2022/02/17 09:17:26;;;;;;;28.80;2.65;;;12.10;98.40;;;;;;5018666;28;20481;-63
2022/02/17 09:19:52;;;;;;;22.95;2.78;;;12.10;98.40;;;;;;5016449;28;20048;-62
2022/02/17 09:22:18;;;;;;;24.30;2.42;;;12.10;98.30;;;;;;5018907;28;20113;-61
2022/02/17 09:24:43;;;;;;;15.88;2.28;;;12.20;98.30;;;;;;5021311;28;20564;-64
2022/02/17 09:27:09;;;;;;;29.67;3.85;;;12.20;98.30;;;;;;5003059;28;20116;-62
2022/02/17 09:29:34;;;;;;;30.45;3.55;;;12.20;98.30;;;;;;5020132;28;20497;-63
2022/02/17 09:32:00;;;;;;;51.40;4.25;;;12.30;98.30;;;;;;5019008;28;20041;-61
2022/02/17 09:34:26;;;;;;;28.60;3.20;;;12.30;98.30;;;;;;5013526;28;20037;-62
2022/02/17 09:36:52;;;;;;;33.60;3.13;;;12.30;98.20;;;;;;5014341;28;20117;-62
2022/02/17 09:39:17;;;;;;;10.55;1.70;;;12.30;98.20;;;;;;5000800;28;20061;-63
2022/02/17 09:41:43;;;;;;;23.52;2.65;;;12.40;98.20;;;;;;5018490;28;20338;-64
2022/02/17 09:44:09;;;;;;;15.43;2.30;;;12.30;98.30;;;;;;5016166;28;20493;-64
2022/02/17 09:46:36;;;;;;;17.60;1.85;;;12.30;98.30;;;;;;5019582;28;20140;-66
2022/02/17 09:49:02;;;;;;;18.33;2.35;;;12.30;98.50;;;;;;5015114;28;20025;-66
2022/02/17 09:51:32;;;;;;;18.67;2.33;;;12.40;98.50;;;;;;5018460;28;20028;-64
2022/02/17 09:53:58;;;;;;;25.23;3.75;;;12.40;98.60;;;;;;5014703;28;20033;-64
2022/02/17 09:56:24;;;;;;;23.85;2.75;;;12.40;98.70;;;;;;5014043;28;20041;-60
2022/02/17 09:58:53;;;;;;;16.38;2.25;;;12.40;98.90;;;;;;5013417;28;20216;-63
2022/02/17 10:01:20;;;;;;;21.73;2.72;;;12.40;99.10;;;;;;5009374;28;20022;-63
2022/02/17 10:03:45;;;;;;;17.80;2.22;;;12.40;99.20;;;;;;5016192;28;20028;-65
2022/02/17 10:06:12;;;;;;;15.27;2.15;;;12.40;99.20;;;;;;5015746;28;20048;-64
2022/02/17 10:08:38;;;;;;;17.33;2.35;;;12.40;99.30;;;;;;5013186;28;20056;-64
2022/02/17 10:11:04;;;;;;;26.45;2.95;;;12.40;99.40;;;;;;5019235;28;20484;-62
2022/02/17 10:13:30;;;;;;;53.92;4.50;;;12.40;99.40;;;;;;5018049;28;20038;-63
2022/02/17 10:15:59;;;;;;;18.77;1.67;;;12.40;99.50;;;;;;5018076;28;20578;-65
2022/02/17 10:18:30;;;;;;;16.15;1.83;;;12.50;99.50;;;;;;5002658;28;20026;-63
2022/02/17 10:21:06;;;;;;;16.45;1.95;;;12.50;99.50;;;;;;5018654;28;20029;-63
2022/02/17 10:23:51;;;;;;;34.03;2.78;;;12.50;99.50;;;;;;5015236;28;20034;-62
2022/02/17 10:26:18;;;;;;;90.53;7.70;;;12.50;99.60;;;;;;5017219;28;20413;-62
2022/02/17 10:28:57;;;;;;;44.83;3.70;;;12.50;99.80;;;;;;5018402;28;20029;-62
2022/02/17 10:31:35;;;;;;;17.73;2.00;;;12.50;99.90;;;;;;5004786;28;20112;-63
2022/02/17 10:34:01;;;;;;;16.55;2.55;;;12.50;99.60;;;;;;5019266;28;20535;-64
2022/02/17 10:36:40;;;;;;;10.00;1.50;;;12.50;99.50;;;;;;5010348;28;20049;-66
2022/02/17 10:39:19;;;;;;;28.52;3.20;;;12.50;99.50;;;;;;5015127;28;20029;-66
2022/02/17 10:41:47;;;;;;;81.88;3.05;;;12.50;99.40;;;;;;5020359;28;20053;-64
2022/02/17 10:44:13;;;;;;;19.98;2.08;;;12.50;99.30;;;;;;5019795;28;20021;-64
2022/02/17 10:46:39;;;;;;;22.17;1.85;;;12.50;99.30;;;;;;5016462;28;20568;-61
2022/02/17 10:49:15;;;;;;;17.00;2.35;;;12.50;99.20;;;;;;5015933;28;20055;-64
2022/02/17 10:51:41;;;;;;;32.50;2.38;;;12.50;99.10;;;;;;5015645;28;20030;-64
2022/02/17 10:54:06;;;;;;;10.43;1.90;;;12.50;99.00;;;;;;5015981;28;20433;-64
2022/02/17 10:56:33;;;;;;;32.92;5.15;;;12.50;99.00;;;;;;5015804;28;20037;-62
2022/02/17 10:58:59;;;;;;;34.42;3.60;;;12.50;99.00;;;;;;5004935;28;20041;-62
2022/02/17 11:01:25;;;;;;;46.67;5.20;;;12.50;99.10;;;;;;5022431;28;20026;-64
2022/02/17 11:03:53;;;;;;;50.85;5.85;;;12.50;99.10;;;;;;5004306;28;20040;-61
2022/02/17 11:06:18;;;;;;;101.45;8.95;;;12.50;99.20;;;;;;5019786;28;20040;-62
2022/02/17 11:08:45;;;;;;;55.05;6.55;;;12.50;99.50;;;;;;5017354;28;20041;-62
2022/02/17 11:11:13;;;;;;;46.80;5.72;;;12.50;99.20;;;;;;5016658;28;20035;-61
2022/02/17 11:13:42;;;;;;;42.10;4.32;;;12.50;99.10;;;;;;5015798;28;20026;-65
2022/02/17 11:16:09;;;;;;;49.03;6.07;;;12.50;99.00;;;;;;5015874;28;20477;-61
2022/02/17 11:18:35;;;;;;;47.50;5.53;;;12.50;99.00;;;;;;5020100;28;21550;-62
2022/02/17 11:21:01;;;;;;;41.80;5.93;;;12.40;99.00;;;;;;5020095;28;20067;-65
2022/02/17 11:23:31;;;;;;;40.67;6.63;;;12.50;99.00;;;;;;5019414;28;20044;-63
2022/02/17 11:25:57;;;;;;;34.15;5.28;;;12.50;98.90;;;;;;5016896;28;20033;-62
2022/02/17 11:28:33;;;;;;;38.95;5.90;;;12.50;98.90;;;;;;5015178;28;20037;-62
2022/02/17 11:31:10;;;;;;;38.28;5.50;;;12.50;98.70;;;;;;5014465;28;20099;-61
2022/02/17 11:33:38;;;;;;;52.90;5.20;;;12.50;98.60;;;;;;5015829;28;20060;-63
2022/02/17 11:36:25;;;;;;;35.40;4.43;;;12.40;98.50;;;;;;5015407;28;20029;-60
2022/02/17 11:38:55;;;;;;;30.30;3.95;;;12.40;98.40;;;;;;5012293;28;20724;-64
2022/02/17 11:41:22;;;;;;;41.00;6.70;;;12.40;98.20;;;;;;5016835;28;20380;-61
2022/02/17 11:43:49;;;;;;;42.17;5.30;;;12.40;98.10;;;;;;4995496;28;20136;-64
2022/02/17 11:46:33;;;;;;;48.40;5.63;;;12.50;98.20;;;;;;5012821;28;20060;-64
2022/02/17 11:48:59;;;;;;;63.88;6.28;;;12.50;98.10;;;;;;5015990;28;20032;-59
2022/02/17 11:51:24;;;;;;;40.15;5.65;;;12.50;98.10;;;;;;5012480;28;20029;-64
2022/02/17 11:54:14;;;;;;;39.47;6.63;;;12.50;98.00;;;;;;5015068;28;20052;-61
2022/02/17 11:56:44;;;;;;;63.45;7.57;;;12.50;98.00;;;;;;5022029;28;20044;-60
2022/02/17 11:59:29;;;;;;;22.55;3.45;;;12.50;98.20;;;;;;5016633;28;20060;-63
2022/02/17 12:01:56;;;;;;;27.48;3.92;;;12.50;97.80;;;;;;5018016;28;20104;-62
2022/02/17 12:04:31;;;;;;;66.10;6.63;;;12.50;97.60;;;;;;5019091;28;20075;-61
2022/02/17 12:07:03;;;;;;;32.55;4.43;;;12.50;97.70;;;;;;5018858;28;20029;-62
2022/02/17 12:09:29;;;;;;;52.33;6.22;;;12.60;97.70;;;;;;5006263;28;20037;-63
2022/02/17 12:11:58;;;;;;;61.65;7.72;;;12.60;97.80;;;;;;5023734;28;20075;-63
2022/02/17 12:14:23;;;;;;;51.35;5.90;;;12.60;97.90;;;;;;5020257;28;20037;-60
2022/02/17 12:16:52;;;;;;;40.88;4.72;;;12.50;97.80;;;;;;4994806;28;20354;-62
2022/02/17 12:19:18;;;;;;;43.28;5.40;;;12.50;97.70;;;;;;5016315;28;20034;-60
2022/02/17 12:21:45;;;;;;;38.35;6.70;;;12.60;97.60;;;;;;5016739;28;20045;-63
2022/02/17 12:24:12;;;;;;;63.53;6.70;;;12.60;97.50;;;;;;5015664;28;20036;-62
2022/02/17 12:26:42;;;;;;;65.18;7.60;;;12.60;97.60;;;;;;4999681;28;20756;-63
2022/02/17 12:29:32;;;;;;;82.15;9.00;;;12.60;97.60;;;;;;5029719;28;20373;-63
2022/02/17 12:31:58;;;;;;;111.85;12.80;;;12.60;97.30;;;;;;5013909;28;20388;-65
2022/02/17 12:34:24;;;;;;;111.25;12.45;;;12.70;97.30;;;;;;5018356;28;20034;-61
2022/02/17 12:36:50;;;;;;;87.35;9.57;;;12.70;97.30;;;;;;5015422;28;20429;-60
2022/02/17 12:39:16;;;;;;;152.27;17.00;;;12.70;97.20;;;;;;5000755;28;20480;-65
2022/02/17 12:42:01;;;;;;;111.20;10.93;;;12.70;97.10;;;;;;5018853;28;20882;-62